createdAt,value
2024-01-06T00:01:36.009Z,-0.70
2024-01-06T00:05:43.800Z,-0.90
2024-01-06T00:07:48.546Z,-0.80
2024-01-06T00:09:52.662Z,-0.80
2024-01-06T00:11:59.408Z,-1.10
2024-01-06T00:14:06.165Z,-0.70
2024-01-06T00:16:13.848Z,-0.90
2024-01-06T00:18:24.924Z,-1.00
2024-01-06T00:22:36.517Z,-1.00
2024-01-06T00:24:47.026Z,-1.00
2024-01-06T00:31:04.505Z,-0.90
2024-01-06T00:33:09.436Z,-0.80
2024-01-06T00:35:14.181Z,-0.80
2024-01-06T00:37:16.735Z,-0.90
2024-01-06T00:39:19.780Z,-0.80
2024-01-06T00:41:23.219Z,-0.80
2024-01-06T00:43:28.604Z,-0.70
2024-01-06T00:45:34.886Z,-0.70
2024-01-06T00:47:39.297Z,-0.80
2024-01-06T00:49:44.537Z,-0.80
2024-01-06T00:51:55.463Z,-0.50
2024-01-06T00:53:59.396Z,-0.70
2024-01-06T00:56:05.059Z,-0.60
2024-01-06T00:58:10.911Z,-0.70
2024-01-06T01:00:15.594Z,-0.70
2024-01-06T01:02:18.096Z,-0.70
2024-01-06T01:04:20.657Z,1.10
2024-01-06T01:06:25.041Z,-0.50
2024-01-06T01:08:30.570Z,-0.10
2024-01-06T01:10:33.642Z,-0.50
2024-01-06T01:12:38.045Z,1.10
2024-01-06T01:14:42.952Z,-0.40
2024-01-06T01:16:48.925Z,-0.50
2024-01-06T01:18:51.952Z,-0.40
2024-01-06T01:20:57.198Z,-0.30
2024-01-06T01:23:02.320Z,-1.00
2024-01-06T01:25:09.947Z,-0.40
2024-01-06T01:27:15.123Z,-0.60
2024-01-06T01:29:23.421Z,-0.50
2024-01-06T01:31:28.075Z,-0.60
2024-01-06T01:33:34.041Z,-0.50
2024-01-06T01:35:36.999Z,-0.60
2024-01-06T01:37:41.435Z,-0.70
2024-01-06T01:39:49.674Z,-0.90
2024-01-06T01:41:53.145Z,-0.70
2024-01-06T01:43:59.501Z,-0.60
2024-01-06T01:46:02.763Z,-0.50
2024-01-06T01:48:05.396Z,-0.70
2024-01-06T01:50:09.584Z,-0.70
2024-01-06T01:52:11.745Z,-0.30
2024-01-06T01:54:14.618Z,-0.50
2024-01-06T01:56:17.765Z,0.10
2024-01-06T01:58:20.392Z,2.00
2024-01-06T02:00:24.165Z,-0.50
2024-01-06T02:02:29.789Z,-0.50
2024-01-06T02:04:32.059Z,-0.50
2024-01-06T02:08:37.400Z,-0.40
2024-01-06T02:10:40.225Z,2.20
2024-01-06T02:12:42.423Z,0.60
2024-01-06T02:14:44.992Z,-0.50
2024-01-06T02:16:47.055Z,-0.20
2024-01-06T02:20:55.770Z,-0.50
2024-01-06T02:25:03.456Z,-0.50
2024-01-06T02:27:05.973Z,0.40
2024-01-06T02:29:08.089Z,-0.50
2024-01-06T02:31:10.690Z,1.30
2024-01-06T02:33:13.131Z,-0.50
2024-01-06T02:35:15.644Z,-0.60
2024-01-06T02:37:17.769Z,-0.70
2024-01-06T02:39:20.331Z,1.60
2024-01-06T02:41:22.531Z,-0.60
2024-01-06T02:43:25.102Z,-0.60
2024-01-06T02:45:27.244Z,-0.60
2024-01-06T02:47:30.178Z,-0.60
2024-01-06T02:49:32.521Z,-0.50
2024-01-06T02:51:35.122Z,-0.60
2024-01-06T02:53:37.337Z,-0.70
2024-01-06T02:55:40.597Z,-0.60
2024-01-06T02:57:42.813Z,-0.60
2024-01-06T02:59:45.398Z,-0.70
2024-01-06T03:01:47.689Z,-0.70
2024-01-06T03:03:50.376Z,-0.70
2024-01-06T03:05:52.699Z,-1.20
2024-01-06T03:07:55.168Z,-0.70
2024-01-06T03:09:57.348Z,-0.60
2024-01-06T03:11:59.864Z,-0.70
2024-01-06T03:14:01.963Z,1.20
2024-01-06T03:16:07.314Z,-0.60
2024-01-06T03:18:10.133Z,-1.50
2024-01-06T03:20:12.847Z,-0.70
2024-01-06T03:22:15.034Z,-0.90
2024-01-06T03:24:17.521Z,-0.50
2024-01-06T03:26:19.800Z,-0.60
2024-01-06T03:28:22.254Z,-0.60
2024-01-06T03:30:24.411Z,-0.70
2024-01-06T03:32:27.023Z,-0.60
2024-01-06T03:34:29.226Z,-0.70
2024-01-06T03:36:31.823Z,-0.60
2024-01-06T03:38:34.930Z,-0.70
2024-01-06T03:40:37.319Z,-0.80
2024-01-06T03:42:39.541Z,-0.60
2024-01-06T03:44:42.095Z,-0.50
2024-01-06T03:46:44.363Z,-0.10
2024-01-06T03:48:47.316Z,-0.40
2024-01-06T03:50:49.527Z,-0.60
2024-01-06T03:52:52.233Z,-0.70
2024-01-06T03:54:54.542Z,-0.30
2024-01-06T03:56:57.094Z,-0.60
2024-01-06T03:58:59.273Z,-0.60
2024-01-06T04:01:02.515Z,0.50
2024-01-06T04:03:05.698Z,-0.60
2024-01-06T04:05:08.385Z,-0.50
2024-01-06T04:07:10.627Z,-0.30
2024-01-06T04:09:14.585Z,-0.60
2024-01-06T04:11:17.959Z,0.20
2024-01-06T04:13:20.658Z,-0.80
2024-01-06T04:15:22.799Z,-0.70
2024-01-06T04:17:27.361Z,-0.70
2024-01-06T04:19:29.629Z,-0.80
2024-01-06T04:21:32.188Z,1.40
2024-01-06T04:23:34.336Z,-0.70
2024-01-06T04:25:36.885Z,-0.70
2024-01-06T04:27:39.151Z,1.20
2024-01-06T04:31:44.226Z,-0.80
2024-01-06T04:33:46.879Z,-0.80
2024-01-06T04:35:49.193Z,0.30
2024-01-06T04:37:51.738Z,0.60
2024-01-06T04:39:54.147Z,-0.70
2024-01-06T04:41:56.731Z,0.70
2024-01-06T04:43:58.841Z,-0.70
2024-01-06T04:46:01.306Z,-0.60
2024-01-06T04:48:04.426Z,1.60
2024-01-06T04:50:07.375Z,-0.40
2024-01-06T04:52:09.569Z,-0.60
2024-01-06T04:54:12.087Z,-0.60
2024-01-06T04:56:14.471Z,-0.70
2024-01-06T04:58:16.872Z,0.70
2024-01-06T05:00:19.128Z,0.70
2024-01-06T05:02:21.735Z,-0.70
2024-01-06T05:04:24.053Z,-0.70
2024-01-06T05:06:26.727Z,-0.60
2024-01-06T05:10:34.774Z,-0.50
2024-01-06T05:12:37.029Z,-0.70
2024-01-06T05:14:39.564Z,-0.60
2024-01-06T05:16:41.772Z,0.80
2024-01-06T05:18:44.283Z,-0.70
2024-01-06T05:22:49.631Z,-0.60
2024-01-06T05:24:54.549Z,-0.70
2024-01-06T05:26:57.163Z,2.20
2024-01-06T05:28:59.410Z,-0.60
2024-01-06T05:31:02.218Z,-0.90
2024-01-06T05:33:05.342Z,-0.50
2024-01-06T05:35:08.739Z,-0.50
2024-01-06T05:37:10.987Z,-0.30
2024-01-06T05:39:13.600Z,-0.50
2024-01-06T05:41:15.814Z,-0.70
2024-01-06T05:43:18.260Z,-0.60
2024-01-06T05:45:20.521Z,-0.50
2024-01-06T05:47:23.134Z,-0.70
2024-01-06T05:49:25.851Z,-0.60
2024-01-06T05:51:28.427Z,-0.50
2024-01-06T05:53:30.594Z,-0.60
2024-01-06T05:55:33.202Z,0.90
2024-01-06T05:57:35.399Z,-0.10
2024-01-06T05:59:37.981Z,-0.70
2024-01-06T06:01:40.205Z,-0.80
2024-01-06T06:03:42.764Z,-0.70
2024-01-06T06:05:46.242Z,-0.60
2024-01-06T06:09:51.414Z,-0.70
2024-01-06T06:11:53.826Z,-0.10
2024-01-06T06:13:56.036Z,0.90
2024-01-06T06:15:59.171Z,-1.00
2024-01-06T06:18:01.881Z,-0.50
2024-01-06T06:20:05.054Z,-0.60
2024-01-06T06:22:07.279Z,-0.80
2024-01-06T06:24:09.866Z,0.20
2024-01-06T06:26:13.126Z,-0.70
2024-01-06T06:28:15.835Z,-0.60
2024-01-06T06:30:18.555Z,2.00
2024-01-06T06:32:21.147Z,-0.70
2024-01-06T06:34:23.679Z,-0.60
2024-01-06T06:36:26.542Z,-0.50
2024-01-06T06:38:28.852Z,2.10
2024-01-06T06:40:31.387Z,-0.60
2024-01-06T06:42:33.650Z,1.60
2024-01-06T06:44:36.146Z,-0.50
2024-01-06T06:46:38.283Z,-0.50
2024-01-06T06:48:41.619Z,-0.10
2024-01-06T06:50:43.852Z,-0.60
2024-01-06T06:54:50.382Z,-0.50
2024-01-06T06:56:52.873Z,1.80
2024-01-06T06:58:55.634Z,-0.60
2024-01-06T07:00:58.133Z,1.30
2024-01-06T07:03:01.402Z,1.50
2024-01-06T07:05:05.905Z,-0.40
2024-01-06T07:07:08.151Z,-0.50
2024-01-06T07:09:10.735Z,-0.50
2024-01-06T07:11:16.178Z,-0.70
2024-01-06T07:13:18.693Z,-0.40
2024-01-06T07:15:20.882Z,1.60
2024-01-06T07:17:23.300Z,-0.50
2024-01-06T07:19:25.732Z,1.40
2024-01-06T07:21:28.195Z,1.10
2024-01-06T07:25:33.279Z,-0.40
2024-01-06T07:27:35.611Z,2.00
2024-01-06T07:29:38.772Z,-0.40
2024-01-06T07:31:40.995Z,-0.30
2024-01-06T07:35:47.162Z,-0.20
2024-01-06T07:37:49.657Z,-0.20
2024-01-06T07:39:51.839Z,-0.10
2024-01-06T07:41:54.458Z,-0.20
2024-01-06T07:45:59.534Z,-0.10
2024-01-06T07:48:02.002Z,-0.20
2024-01-06T07:50:06.384Z,-0.20
2024-01-06T07:52:08.579Z,-0.10
2024-01-06T07:54:11.253Z,-0.10
2024-01-06T07:56:13.525Z,0.00
2024-01-06T07:58:17.025Z,0.00
2024-01-06T08:00:19.382Z,1.70
2024-01-06T08:02:21.849Z,0.00
2024-01-06T08:04:24.090Z,1.50
2024-01-06T08:06:27.754Z,1.70
2024-01-06T08:08:30.030Z,0.00
2024-01-06T08:10:32.591Z,0.00
2024-01-06T08:12:35.803Z,0.50
2024-01-06T08:16:40.916Z,0.10
2024-01-06T08:18:43.459Z,0.60
2024-01-06T08:20:45.884Z,1.50
2024-01-06T08:22:48.380Z,0.10
2024-01-06T08:24:50.578Z,2.30
2024-01-06T08:26:53.050Z,0.10
2024-01-06T08:28:55.274Z,1.70
2024-01-06T08:30:57.869Z,1.20
2024-01-06T08:33:01.133Z,2.60
2024-01-06T08:35:04.984Z,0.70
2024-01-06T08:39:10.143Z,0.30
2024-01-06T08:41:12.336Z,2.20
2024-01-06T08:43:15.312Z,1.70
2024-01-06T08:45:17.510Z,0.00
2024-01-06T08:47:20.249Z,0.00
2024-01-06T08:49:22.478Z,0.00
2024-01-06T08:51:25.576Z,0.00
2024-01-06T08:53:27.907Z,0.00
2024-01-06T08:55:30.370Z,1.10
2024-01-06T08:57:32.666Z,2.00
2024-01-06T08:59:35.158Z,2.10
2024-01-06T09:01:38.744Z,2.00
2024-01-06T09:03:41.367Z,2.00
2024-01-06T09:05:43.680Z,1.00
2024-01-06T09:07:54.501Z,1.60
2024-01-06T09:09:57.480Z,0.90
2024-01-06T09:12:00.358Z,2.50
2024-01-06T09:14:02.693Z,0.10
2024-01-06T09:16:05.666Z,1.00
2024-01-06T09:18:08.053Z,0.20
2024-01-06T09:20:11.019Z,0.20
2024-01-06T09:22:14.330Z,0.20
2024-01-06T09:24:16.892Z,1.80
2024-01-06T09:26:19.109Z,0.10
2024-01-06T09:30:27.340Z,0.50
2024-01-06T09:32:29.940Z,0.20
2024-01-06T09:34:33.114Z,0.90
2024-01-06T09:36:36.998Z,1.70
2024-01-06T09:38:39.250Z,0.20
2024-01-06T09:40:45.742Z,0.10
2024-01-06T09:42:47.981Z,1.90
2024-01-06T09:44:50.819Z,2.70
2024-01-06T09:46:53.795Z,0.40
2024-01-06T09:48:58.698Z,2.20
2024-01-06T09:51:05.023Z,0.00
2024-01-06T09:53:09.978Z,0.10
2024-01-06T09:55:13.507Z,0.10
2024-01-06T09:57:18.642Z,3.00
2024-01-06T10:01:25.680Z,0.10
2024-01-06T10:03:30.792Z,0.10
2024-01-06T10:05:36.889Z,0.10
2024-01-06T10:07:39.686Z,0.00
2024-01-06T10:09:43.847Z,0.20
2024-01-06T10:11:46.326Z,-0.10
2024-01-06T10:13:53.508Z,0.00
2024-01-06T10:15:56.554Z,0.00
2024-01-06T10:18:00.471Z,0.20
2024-01-06T10:20:04.526Z,-0.20
2024-01-06T10:22:08.364Z,0.00
2024-01-06T10:26:16.712Z,-0.10
2024-01-06T10:30:22.243Z,0.30
2024-01-06T10:32:30.118Z,0.10
2024-01-06T10:34:33.809Z,-0.10
2024-01-06T10:36:39.454Z,-0.10
2024-01-06T10:38:45.375Z,-0.10
2024-01-06T10:41:01.485Z,0.00
2024-01-06T10:43:05.171Z,-0.20
2024-01-06T10:45:11.662Z,-0.10
2024-01-06T10:47:16.300Z,-0.20
2024-01-06T10:49:22.605Z,0.20
2024-01-06T10:51:28.302Z,-0.10
2024-01-06T10:53:31.897Z,-0.20
2024-01-06T10:55:35.233Z,-0.20
2024-01-06T10:57:39.661Z,0.10
2024-01-06T10:59:42.884Z,-0.10
2024-01-06T11:01:46.762Z,1.80
2024-01-06T11:03:52.953Z,-0.10
2024-01-06T11:05:55.229Z,0.00
2024-01-06T11:08:02.043Z,-0.10
2024-01-06T11:10:07.157Z,0.50
2024-01-06T11:12:09.774Z,-0.10
2024-01-06T11:14:29.271Z,-0.10
2024-01-06T11:16:38.419Z,-0.10
2024-01-06T11:18:42.468Z,-0.10
2024-01-06T11:21:29.237Z,-0.20
2024-01-06T11:23:31.483Z,-0.10
2024-01-06T11:25:34.042Z,-0.20
2024-01-06T11:27:37.498Z,0.00
2024-01-06T11:29:44.019Z,0.00
2024-01-06T11:32:40.425Z,0.00
2024-01-06T11:34:43.454Z,-0.20
2024-01-06T11:36:47.366Z,0.00
2024-01-06T11:38:52.194Z,0.30
2024-01-06T11:40:54.437Z,-0.10
2024-01-06T11:43:11.123Z,0.00
2024-01-06T11:45:14.893Z,-0.10
2024-01-06T11:47:19.296Z,-0.10
2024-01-06T11:49:22.788Z,0.00
2024-01-06T11:51:26.998Z,-0.10
2024-01-06T11:53:29.936Z,-0.10
2024-01-06T11:55:36.112Z,-0.10
2024-01-06T11:57:39.076Z,0.40
2024-01-06T11:59:41.656Z,-0.10
2024-01-06T12:01:44.057Z,2.70
2024-01-06T12:03:46.639Z,2.10
2024-01-06T12:06:04.216Z,0.00
2024-01-06T12:08:08.950Z,0.10
2024-01-06T12:10:12.643Z,-0.20
2024-01-06T12:12:19.168Z,0.00
2024-01-06T12:14:21.463Z,-0.20
2024-01-06T12:16:28.351Z,-0.10
2024-01-06T12:20:34.093Z,0.20
2024-01-06T12:22:36.571Z,1.40
2024-01-06T12:24:39.090Z,-1.90
2024-01-06T12:26:44.414Z,2.50
2024-01-06T12:28:55.955Z,0.00
2024-01-06T12:30:58.319Z,-0.10
2024-01-06T12:33:02.277Z,0.00
2024-01-06T12:35:04.972Z,0.10
2024-01-06T12:37:09.301Z,-0.20
2024-01-06T12:39:17.596Z,-0.10
2024-01-06T12:41:24.237Z,0.00
2024-01-06T12:43:26.469Z,-0.10
2024-01-06T12:45:30.217Z,0.00
2024-01-06T12:47:33.552Z,0.00
2024-01-06T12:49:39.278Z,0.10
2024-01-06T12:51:41.909Z,-0.20
2024-01-06T12:53:44.524Z,-0.20
2024-01-06T12:55:46.918Z,-0.10
2024-01-06T12:59:52.361Z,-0.30
2024-01-06T13:01:54.975Z,0.70
2024-01-06T13:04:00.661Z,1.10
2024-01-06T13:06:05.547Z,-0.10
2024-01-06T13:08:08.290Z,-0.10
2024-01-06T13:12:19.827Z,-0.10
2024-01-06T13:14:24.992Z,0.30
2024-01-06T13:18:31.378Z,0.00
2024-01-06T13:20:33.911Z,-0.30
2024-01-06T13:24:41.790Z,-0.30
2024-01-06T13:26:44.629Z,0.00
2024-01-06T13:28:47.456Z,-0.20
2024-01-06T13:31:53.861Z,-0.40
2024-01-06T13:33:56.998Z,-0.20
2024-01-06T13:36:00.013Z,-0.20
2024-01-06T13:38:03.073Z,-0.30
2024-01-06T13:40:08.519Z,-0.40
2024-01-06T13:44:13.723Z,-0.30
2024-01-06T13:46:15.944Z,-0.20
2024-01-06T13:48:19.729Z,0.00
2024-01-06T13:50:22.071Z,-0.30
2024-01-06T13:52:24.641Z,0.10
2024-01-06T13:54:26.958Z,-0.40
2024-01-06T13:56:29.530Z,1.70
2024-01-06T13:58:31.802Z,-0.30
2024-01-06T14:00:34.409Z,-0.50
2024-01-06T14:02:36.718Z,-0.40
2024-01-06T14:04:39.622Z,-0.40
2024-01-06T14:06:42.130Z,-0.20
2024-01-06T14:08:45.079Z,-0.50
2024-01-06T14:10:47.502Z,-0.30
2024-01-06T14:12:51.663Z,-0.50
2024-01-06T14:15:06.950Z,-0.60
2024-01-06T14:19:18.020Z,-0.50
2024-01-06T14:21:21.092Z,-0.50
2024-01-06T14:23:23.749Z,-0.60
2024-01-06T14:25:28.668Z,-0.60
2024-01-06T14:46:32.292Z,-0.60
2024-01-06T14:52:44.700Z,-0.70
2024-01-06T14:54:47.405Z,2.90
2024-01-06T14:56:49.678Z,-0.80
2024-01-06T14:58:52.393Z,-0.80
2024-01-06T15:00:57.319Z,-0.80
2024-01-06T15:02:59.848Z,-0.70
2024-01-06T15:05:02.385Z,-0.70
2024-01-06T15:07:05.370Z,-0.70
2024-01-06T15:09:07.881Z,-0.90
2024-01-06T15:11:10.465Z,-0.40
2024-01-06T15:13:12.729Z,-0.30
2024-01-06T15:15:17.516Z,-0.80
2024-01-06T15:17:24.537Z,-0.80
2024-01-06T15:23:37.977Z,-0.70
2024-01-06T15:25:40.582Z,-0.80
2024-01-06T15:27:48.708Z,-0.70
2024-01-06T15:29:51.116Z,-0.80
2024-01-06T15:31:58.219Z,-0.70
2024-01-06T15:34:11.244Z,-0.70
2024-01-06T15:38:37.691Z,-0.70
2024-01-06T15:43:06.959Z,-0.70
2024-01-06T15:52:11.826Z,-0.80
2024-01-06T15:54:34.697Z,-0.80
2024-01-06T16:04:39.604Z,-0.90
2024-01-06T16:06:47.018Z,-3.80
2024-01-06T16:10:59.835Z,-1.10
2024-01-06T16:11:26.631Z,-0.80
2024-01-06T16:13:04.686Z,-4.50
2024-01-06T16:15:07.598Z,-1.00
2024-01-06T16:17:10.208Z,-1.00
2024-01-06T16:19:16.125Z,0.10
2024-01-06T16:21:44.992Z,-2.20
2024-01-06T16:23:47.339Z,-1.00
2024-01-06T16:25:53.034Z,-1.00
2024-01-06T16:27:56.383Z,-1.20
2024-01-06T16:39:15.321Z,-1.10
2024-01-06T16:46:08.836Z,-1.20
2024-01-06T16:48:35.955Z,-3.70
2024-01-06T16:52:59.326Z,-1.30
2024-01-06T16:57:40.439Z,-1.40
2024-01-06T17:01:51.736Z,-1.50
2024-01-06T17:06:47.835Z,-1.50
2024-01-06T17:10:54.766Z,-1.60
2024-01-06T17:12:57.094Z,-1.60
2024-01-06T17:14:59.662Z,-1.50
2024-01-06T17:17:01.885Z,-1.80
2024-01-06T17:19:04.423Z,-1.70
2024-01-06T17:21:20.364Z,-1.60
2024-01-06T17:29:38.294Z,-1.60
2024-01-06T17:31:40.994Z,-1.50
2024-01-06T17:33:43.960Z,-1.50
2024-01-06T17:35:51.594Z,-1.50
2024-01-06T17:44:14.586Z,-1.60
2024-01-06T17:46:16.819Z,-1.60
2024-01-06T17:48:19.507Z,-1.50
2024-01-06T17:50:21.852Z,-1.50
2024-01-06T17:52:28.103Z,-1.50
2024-01-06T17:54:30.260Z,-1.50
2024-01-06T17:56:32.736Z,-1.40
2024-01-06T17:58:34.944Z,-1.50
2024-01-06T18:00:37.415Z,-1.40
2024-01-06T18:02:39.980Z,-1.60
2024-01-06T18:04:43.050Z,-1.50
2024-01-06T18:06:46.688Z,-1.50
2024-01-06T18:08:49.574Z,-1.60
2024-01-06T18:13:00.752Z,-1.70
2024-01-06T18:15:03.658Z,-1.50
2024-01-06T18:17:09.539Z,-1.60
2024-01-06T18:19:12.336Z,-1.50
2024-01-06T18:23:20.233Z,-1.60
2024-01-06T18:25:22.636Z,-1.60
2024-01-06T18:27:25.019Z,-1.60
2024-01-06T18:29:27.526Z,-1.60
2024-01-06T18:31:30.113Z,-1.60
2024-01-06T18:33:33.515Z,-1.70
2024-01-06T18:35:35.849Z,-1.70
2024-01-06T18:37:38.321Z,-1.70
2024-01-06T18:40:06.110Z,-1.70
2024-01-06T18:42:39.025Z,-1.80
2024-01-06T18:48:32.839Z,-1.80
2024-01-06T18:48:33.057Z,-1.70
2024-01-06T18:50:35.378Z,-1.90
2024-01-06T18:52:41.336Z,-1.70
2024-01-06T18:58:52.686Z,-1.70
2024-01-06T19:03:01.734Z,-1.90
2024-01-06T19:05:04.940Z,-1.80
2024-01-06T19:07:07.276Z,-1.90
2024-01-06T19:09:09.982Z,-1.80
2024-01-06T19:11:12.519Z,-1.90
2024-01-06T19:19:29.974Z,-2.00
2024-01-06T19:23:51.739Z,-2.00
2024-01-06T19:27:56.903Z,-2.00
2024-01-06T19:29:59.500Z,-1.00
2024-01-06T19:32:03.171Z,-2.10
2024-01-06T19:34:08.141Z,-2.00
2024-01-06T19:36:16.220Z,-2.20
2024-01-06T19:38:20.518Z,-2.20
2024-01-06T19:42:34.884Z,-2.00
2024-01-06T19:53:04.226Z,-1.70
2024-01-06T19:55:11.378Z,-2.30
2024-01-06T19:57:17.311Z,-2.20
2024-01-06T19:59:19.947Z,-2.20
2024-01-06T20:01:22.399Z,-1.60
2024-01-06T20:03:24.989Z,-2.20
2024-01-06T20:05:27.230Z,-2.30
2024-01-06T20:09:36.507Z,-2.30
2024-01-06T20:13:45.977Z,-2.30
2024-01-06T20:15:48.545Z,-0.80
2024-01-06T20:17:52.095Z,-2.00
2024-01-06T20:19:54.750Z,-2.40
2024-01-06T20:21:56.998Z,-0.70
2024-01-06T20:26:06.317Z,-2.40
2024-01-06T20:28:09.524Z,-2.40
2024-01-06T20:30:14.624Z,-2.40
2024-01-06T20:32:17.638Z,-2.50
2024-01-06T20:34:53.406Z,-2.50
2024-01-06T20:38:55.957Z,-2.50
2024-01-06T20:40:58.434Z,-2.50
2024-01-06T20:43:00.830Z,0.10
2024-01-06T20:45:05.942Z,-2.60
2024-01-06T20:47:08.314Z,-2.50
2024-01-06T20:49:11.360Z,-2.30
2024-01-06T20:51:16.384Z,0.00
2024-01-06T20:53:18.898Z,-2.60
2024-01-06T20:55:23.740Z,-1.60
2024-01-06T20:57:29.112Z,0.10
2024-01-06T20:59:32.719Z,0.10
2024-01-06T21:01:35.281Z,-2.70
2024-01-06T21:03:39.989Z,0.00
2024-01-06T21:05:42.868Z,-2.70
2024-01-06T21:07:45.192Z,-0.20
2024-01-06T21:09:47.670Z,-2.50
2024-01-06T21:11:50.063Z,-0.90
2024-01-06T21:13:52.560Z,-2.70
2024-01-06T21:15:54.703Z,-2.70
2024-01-06T21:17:57.141Z,0.60
2024-01-06T21:19:59.421Z,-2.70
2024-01-06T21:22:02.096Z,-1.00
2024-01-06T21:24:07.254Z,-2.70
2024-01-06T21:26:10.999Z,-2.80
2024-01-06T21:28:13.500Z,-2.60
2024-01-06T21:30:16.144Z,-2.80
2024-01-06T21:34:26.082Z,-2.80
2024-01-06T21:36:35.479Z,-2.80
2024-01-06T21:39:02.267Z,-2.80
2024-01-06T21:41:15.752Z,-2.80
2024-01-06T21:43:37.250Z,-2.70
2024-01-06T21:45:48.509Z,-2.70
2024-01-06T21:47:57.741Z,-2.70
2024-01-06T21:50:03.446Z,-2.70
2024-01-06T21:52:14.608Z,-2.70
2024-01-06T21:54:19.843Z,-2.80
2024-01-06T21:56:25.759Z,-2.60
2024-01-06T21:58:37.298Z,-2.80
2024-01-06T22:00:43.350Z,-2.70
2024-01-06T22:02:59.139Z,-2.90
2024-01-06T22:05:15.553Z,-2.90
2024-01-06T22:07:21.661Z,-2.70
2024-01-06T22:09:26.988Z,-2.70
2024-01-06T22:11:32.807Z,-2.80
2024-01-06T22:13:38.934Z,-2.80
2024-01-06T22:15:47.716Z,-2.80
2024-01-06T22:17:55.919Z,-3.30
2024-01-06T22:20:00.735Z,-2.80
2024-01-06T22:22:05.741Z,-2.90
2024-01-06T22:24:10.254Z,-2.90
2024-01-06T22:26:15.053Z,-3.10
2024-01-06T22:28:19.018Z,-3.00
2024-01-06T22:30:21.768Z,-3.10
2024-01-06T22:32:26.189Z,-3.00
2024-01-06T22:34:29.213Z,-3.00
2024-01-06T22:36:34.227Z,-3.00
2024-01-06T22:38:44.155Z,-3.00
2024-01-06T22:40:55.703Z,-1.10
2024-01-06T22:42:58.162Z,-3.10
2024-01-06T22:45:00.629Z,-3.10
2024-01-06T22:47:03.349Z,-3.10
2024-01-06T22:49:05.704Z,-3.20
2024-01-06T22:51:08.368Z,-1.70
2024-01-06T22:53:10.562Z,-1.60
2024-01-06T22:55:13.165Z,-3.20
2024-01-06T22:57:15.551Z,-0.90
2024-01-06T22:59:18.002Z,-0.90
2024-01-06T23:01:20.317Z,-3.40
2024-01-06T23:03:22.974Z,-3.20
2024-01-06T23:05:25.224Z,-3.30
2024-01-06T23:07:29.197Z,-3.30
2024-01-06T23:09:31.589Z,-3.30
2024-01-06T23:11:34.229Z,-2.90
2024-01-06T23:13:36.362Z,-3.40
2024-01-06T23:15:39.181Z,-2.80
2024-01-06T23:17:42.639Z,-3.40
2024-01-06T23:19:48.317Z,-1.10
2024-01-06T23:21:53.207Z,-0.90
2024-01-06T23:23:57.148Z,-3.30
2024-01-06T23:26:06.428Z,-4.90
2024-01-06T23:28:29.471Z,-3.40
2024-01-06T23:32:36.665Z,-3.40
2024-01-06T23:34:43.140Z,-1.00
2024-01-06T23:36:46.286Z,-3.70
2024-01-06T23:43:08.403Z,-3.50
2024-01-06T23:49:39.149Z,-3.40
2024-01-06T23:51:41.516Z,-3.50
2024-01-06T23:53:44.175Z,-3.50
2024-01-06T23:55:46.431Z,-3.50
2024-01-06T23:57:48.941Z,-1.40
2024-01-06T23:59:51.213Z,-3.50
